createdAt,value
2022-10-08T00:01:21.967Z,99877.09
2022-10-08T00:03:54.550Z,99874.62
2022-10-08T00:06:25.579Z,99886.13
2022-10-08T00:08:56.481Z,99881.75
2022-10-08T00:11:26.658Z,99873.63
2022-10-08T00:13:55.829Z,99883.03
2022-10-08T00:16:23.738Z,99873.91
2022-10-08T00:18:54.166Z,99876.63
2022-10-08T00:21:28.338Z,99877.47
2022-10-08T00:23:56.839Z,99871.53
2022-10-08T00:26:27.139Z,99869.50
2022-10-08T00:28:57.157Z,99866.69
2022-10-08T00:31:27.804Z,99863.31
2022-10-08T00:33:57.459Z,99860.78
2022-10-08T00:36:28.402Z,99854.06
2022-10-08T00:38:57.447Z,99852.84
2022-10-08T00:41:27.654Z,99853.03
2022-10-08T00:43:58.619Z,99846.78
2022-10-08T00:46:30.521Z,99842.75
2022-10-08T00:49:13.517Z,99830.41
2022-10-08T00:51:47.829Z,99833.72
2022-10-08T00:54:16.629Z,99833.41
2022-10-08T00:56:44.828Z,99829.12
2022-10-08T00:59:13.287Z,99835.72
2022-10-08T01:01:44.309Z,99836.59
2022-10-08T01:04:13.643Z,99825.19
2022-10-08T01:06:44.482Z,99820.47
2022-10-08T01:09:19.077Z,99833.00
2022-10-08T01:12:06.508Z,99832.84
2022-10-08T01:14:59.661Z,99825.78
2022-10-08T01:17:54.587Z,99822.59
2022-10-08T01:20:31.838Z,99822.19
2022-10-08T01:23:21.317Z,99815.25
2022-10-08T01:26:03.801Z,99813.53
2022-10-08T01:28:35.501Z,99816.03
2022-10-08T01:31:10.016Z,99811.37
2022-10-08T01:33:40.959Z,99809.78
2022-10-08T01:36:11.225Z,99807.94
2022-10-08T01:38:42.607Z,99796.22
2022-10-08T01:41:12.817Z,99801.31
2022-10-08T01:43:44.998Z,99790.88
2022-10-08T01:46:18.476Z,99791.00
2022-10-08T01:48:47.059Z,99796.91
2022-10-08T01:51:23.573Z,99791.94
2022-10-08T01:53:52.487Z,99785.88
2022-10-08T01:56:24.109Z,99782.41
2022-10-08T01:59:14.887Z,99787.37
2022-10-08T02:01:51.903Z,99787.37
2022-10-08T02:04:37.217Z,99778.41
2022-10-08T02:07:09.098Z,99785.16
2022-10-08T02:09:43.327Z,99782.75
2022-10-08T02:12:11.607Z,99779.25
2022-10-08T02:14:43.317Z,99772.19
2022-10-08T02:17:37.548Z,99774.41
2022-10-08T02:20:08.374Z,99773.72
2022-10-08T02:22:40.890Z,99779.19
2022-10-08T02:25:35.487Z,99765.84
2022-10-08T02:28:06.104Z,99767.72
2022-10-08T02:30:41.373Z,99773.25
2022-10-08T02:33:15.077Z,99763.78
2022-10-08T02:35:47.419Z,99768.12
2022-10-08T02:38:19.717Z,99767.28
2022-10-08T02:40:50.048Z,99761.81
2022-10-08T02:43:25.428Z,99755.34
2022-10-08T02:46:00.490Z,99762.06
2022-10-08T02:48:31.510Z,99763.41
2022-10-08T02:51:06.887Z,99768.12
2022-10-08T02:53:38.029Z,99765.19
2022-10-08T02:56:06.009Z,99759.78
2022-10-08T02:58:34.376Z,99762.00
2022-10-08T03:01:24.361Z,99760.97
2022-10-08T03:04:03.268Z,99760.22
2022-10-08T03:06:32.318Z,99762.84
2022-10-08T03:09:00.869Z,99768.12
2022-10-08T03:11:29.457Z,99765.75
2022-10-08T03:13:58.651Z,99756.91
2022-10-08T03:16:35.242Z,99758.63
2022-10-08T03:19:03.958Z,99759.53
2022-10-08T03:21:32.678Z,99761.28
2022-10-08T03:24:00.460Z,99760.62
2022-10-08T03:26:28.207Z,99763.25
2022-10-08T03:28:56.227Z,99765.72
2022-10-08T03:31:24.009Z,99762.25
2022-10-08T03:33:52.852Z,99762.19
2022-10-08T03:36:22.289Z,99759.66
2022-10-08T03:38:51.397Z,99759.31
2022-10-08T03:41:19.835Z,99758.00
2022-10-08T03:43:47.955Z,99768.31
2022-10-08T03:46:16.100Z,99757.72
2022-10-08T03:48:44.069Z,99757.69
2022-10-08T03:51:13.537Z,99762.94
2022-10-08T03:53:42.768Z,99756.16
2022-10-08T03:56:17.013Z,99762.00
2022-10-08T03:58:45.879Z,99760.38
2022-10-08T04:01:16.148Z,99764.09
2022-10-08T04:03:45.585Z,99761.34
2022-10-08T04:06:14.059Z,99755.22
2022-10-08T04:08:42.037Z,99749.00
2022-10-08T04:11:12.140Z,99749.22
2022-10-08T04:13:40.144Z,99747.53
2022-10-08T04:16:11.116Z,99750.13
2022-10-08T04:18:39.917Z,99750.88
2022-10-08T04:21:10.895Z,99740.38
2022-10-08T04:23:40.598Z,99744.75
2022-10-08T04:26:09.436Z,99747.44
2022-10-08T04:28:39.025Z,99748.38
2022-10-08T04:31:11.254Z,99744.75
2022-10-08T04:33:39.227Z,99746.44
2022-10-08T04:36:10.967Z,99746.28
2022-10-08T04:38:38.746Z,99745.44
2022-10-08T04:41:14.328Z,99741.16
2022-10-08T04:43:43.379Z,99740.03
2022-10-08T04:46:13.586Z,99743.75
2022-10-08T04:48:50.194Z,99742.53
2022-10-08T04:51:20.207Z,99742.47
2022-10-08T04:53:48.147Z,99740.06
2022-10-08T04:56:24.517Z,99744.22
2022-10-08T04:58:55.443Z,99751.09
2022-10-08T05:01:23.672Z,99751.00
2022-10-08T05:03:53.031Z,99745.69
2022-10-08T05:06:23.248Z,99749.25
2022-10-08T05:08:51.301Z,99748.87
2022-10-08T05:11:19.409Z,99742.22
2022-10-08T05:13:51.859Z,99749.78
2022-10-08T05:16:20.000Z,99751.25
2022-10-08T05:18:48.677Z,99745.19
2022-10-08T05:21:18.846Z,99744.97
2022-10-08T05:23:46.987Z,99749.44
2022-10-08T05:26:35.597Z,99747.00
2022-10-08T05:29:11.097Z,99753.78
2022-10-08T05:31:39.197Z,99753.56
2022-10-08T05:34:07.138Z,99761.19
2022-10-08T05:36:35.146Z,99748.00
2022-10-08T05:39:05.917Z,99752.16
2022-10-08T05:41:35.800Z,99759.81
2022-10-08T05:44:04.850Z,99758.91
2022-10-08T05:46:35.027Z,99769.94
2022-10-08T05:49:05.666Z,99766.41
2022-10-08T05:51:33.637Z,99770.13
2022-10-08T05:54:01.649Z,99766.00
2022-10-08T05:56:29.818Z,99772.47
2022-10-08T05:58:57.639Z,99778.38
2022-10-08T06:01:28.863Z,99778.88
2022-10-08T06:03:58.567Z,99776.50
2022-10-08T06:06:26.968Z,99781.28
2022-10-08T06:08:56.430Z,99777.63
2022-10-08T06:11:28.837Z,99782.44
2022-10-08T06:13:58.197Z,99782.59
2022-10-08T06:16:27.049Z,99792.19
2022-10-08T06:18:55.277Z,99789.84
2022-10-08T06:21:25.308Z,99785.44
2022-10-08T06:24:06.038Z,99790.81
2022-10-08T06:26:36.817Z,99795.50
2022-10-08T06:29:06.753Z,99789.13
2022-10-08T06:31:35.511Z,99793.25
2022-10-08T06:34:04.863Z,99796.66
2022-10-08T06:36:34.482Z,99797.75
2022-10-08T06:39:05.540Z,99792.41
2022-10-08T06:41:35.273Z,99797.13
2022-10-08T06:44:08.444Z,99796.31
2022-10-08T06:46:36.554Z,99802.97
2022-10-08T06:49:06.240Z,99805.56
2022-10-08T06:51:34.910Z,99807.25
2022-10-08T06:54:08.020Z,99809.25
2022-10-08T06:56:37.802Z,99811.28
2022-10-08T06:59:06.589Z,99807.06
2022-10-08T07:01:35.727Z,99810.34
2022-10-08T07:04:07.182Z,99820.44
2022-10-08T07:06:35.943Z,99809.59
2022-10-08T07:09:04.658Z,99808.66
2022-10-08T07:11:33.792Z,99807.47
2022-10-08T07:14:02.091Z,99804.88
2022-10-08T07:16:29.985Z,99810.06
2022-10-08T07:18:58.876Z,99807.56
2022-10-08T07:21:28.207Z,99807.16
2022-10-08T07:23:56.758Z,99812.63
2022-10-08T07:26:26.805Z,99817.81
2022-10-08T07:29:04.700Z,99808.63
2022-10-08T07:31:36.018Z,99808.50
2022-10-08T07:34:07.881Z,99806.06
2022-10-08T07:36:36.320Z,99805.69
2022-10-08T07:39:07.409Z,99801.19
2022-10-08T07:41:35.626Z,99805.91
2022-10-08T07:44:04.476Z,99804.22
2022-10-08T07:46:35.460Z,99793.53
2022-10-08T07:49:04.853Z,99798.38
2022-10-08T07:51:34.287Z,99792.88
2022-10-08T07:54:03.878Z,99796.50
2022-10-08T07:56:32.768Z,99802.91
2022-10-08T07:59:01.660Z,99794.03
2022-10-08T08:01:30.380Z,99799.69
2022-10-08T08:04:02.306Z,99794.38
2022-10-08T08:06:31.968Z,99793.31
2022-10-08T08:09:00.969Z,99799.25
2022-10-08T08:11:29.908Z,99797.34
2022-10-08T08:13:58.222Z,99801.56
2022-10-08T08:18:57.488Z,99798.59
2022-10-08T08:21:28.456Z,99798.41
2022-10-08T08:23:58.577Z,99789.88
2022-10-08T08:26:26.255Z,99795.06
2022-10-08T08:28:59.952Z,99794.09
2022-10-08T08:31:36.137Z,99792.22
2022-10-08T08:34:15.446Z,99798.38
2022-10-08T08:36:47.048Z,99795.84
2022-10-08T08:39:17.618Z,99787.37
2022-10-08T08:42:18.959Z,99799.91
2022-10-08T08:44:57.028Z,99794.41
2022-10-08T08:47:25.107Z,99787.19
2022-10-08T08:50:04.789Z,99780.34
2022-10-08T08:52:37.289Z,99789.56
2022-10-08T08:55:14.329Z,99789.34
2022-10-08T08:58:13.537Z,99789.50
2022-10-08T09:00:44.029Z,99781.94
2022-10-08T09:03:50.708Z,99788.00
2022-10-08T09:06:23.168Z,99787.59
2022-10-08T09:09:02.036Z,99784.53
2022-10-08T09:11:30.402Z,99785.72
2022-10-08T09:14:21.765Z,99786.53
2022-10-08T09:16:49.777Z,99788.81
2022-10-08T09:19:17.980Z,99787.00
2022-10-08T09:21:45.800Z,99789.91
2022-10-08T09:24:15.029Z,99789.13
2022-10-08T09:26:43.218Z,99790.34
2022-10-08T09:29:30.468Z,99787.66
2022-10-08T09:31:58.650Z,99792.63
2022-10-08T09:34:27.699Z,99786.72
2022-10-08T09:37:04.579Z,99787.03
2022-10-08T09:39:35.870Z,99777.72
2022-10-08T09:42:19.967Z,99778.16
2022-10-08T09:44:49.589Z,99784.12
2022-10-08T09:47:19.564Z,99783.72
2022-10-08T09:50:03.913Z,99771.91
2022-10-08T09:52:33.457Z,99771.41
2022-10-08T09:55:41.367Z,99771.28
2022-10-08T09:58:17.260Z,99768.56
2022-10-08T10:00:45.427Z,99767.34
2022-10-08T10:03:17.967Z,99772.78
2022-10-08T10:05:51.209Z,99765.13
2022-10-08T10:08:51.209Z,99761.88
2022-10-08T10:11:48.056Z,99755.13
2022-10-08T10:14:22.167Z,99752.66
2022-10-08T10:16:53.007Z,99747.72
2022-10-08T10:19:24.937Z,99741.25
2022-10-08T10:22:05.466Z,99743.78
2022-10-08T10:24:48.480Z,99738.97
2022-10-08T10:27:20.977Z,99737.69
2022-10-08T10:30:13.919Z,99742.56
2022-10-08T10:33:06.088Z,99732.09
2022-10-08T10:35:48.129Z,99721.38
2022-10-08T10:38:22.287Z,99723.78
2022-10-08T10:41:02.455Z,99718.63
2022-10-08T10:43:30.267Z,99716.06
2022-10-08T10:46:02.181Z,99716.66
2022-10-08T10:48:30.228Z,99716.34
2022-10-08T10:51:10.968Z,99707.34
2022-10-08T10:54:16.346Z,99697.63
2022-10-08T10:56:50.028Z,99702.69
2022-10-08T10:59:30.458Z,99695.53
2022-10-08T11:02:13.733Z,99688.59
2022-10-08T11:04:44.669Z,99689.31
2022-10-08T11:07:28.018Z,99683.44
2022-10-08T11:10:00.509Z,99693.69
2022-10-08T11:13:03.012Z,99681.97
2022-10-08T11:16:16.403Z,99676.59
2022-10-08T11:18:51.727Z,99678.38
2022-10-08T11:21:28.501Z,99672.78
2022-10-08T11:24:12.479Z,99673.06
2022-10-08T11:26:53.076Z,99681.47
2022-10-08T11:29:34.070Z,99669.62
2022-10-08T11:32:02.360Z,99670.94
2022-10-08T11:34:39.687Z,99665.25
2022-10-08T11:37:28.280Z,99660.69
2022-10-08T11:40:23.478Z,99653.47
2022-10-08T11:43:29.552Z,99648.53
2022-10-08T11:46:33.993Z,99649.72
2022-10-08T11:49:12.519Z,99653.56
2022-10-08T11:51:52.249Z,99649.91
2022-10-08T11:54:34.912Z,99644.78
2022-10-08T11:57:22.223Z,99642.53
2022-10-08T11:59:57.347Z,99635.66
2022-10-08T12:02:35.815Z,99638.06
2022-10-08T12:05:18.038Z,99632.84
2022-10-08T12:07:57.970Z,99630.91
2022-10-08T12:10:38.907Z,99628.66
2022-10-08T12:13:11.995Z,99623.62
2022-10-08T12:15:43.713Z,99624.50
2022-10-08T12:18:13.061Z,99626.25
2022-10-08T12:20:42.579Z,99617.50
2022-10-08T12:23:23.050Z,99612.69
2022-10-08T12:26:03.518Z,99611.06
2022-10-08T12:28:37.408Z,99616.94
2022-10-08T12:31:21.425Z,99608.41
2022-10-08T12:33:58.597Z,99603.84
2022-10-08T12:36:57.427Z,99605.00
2022-10-08T12:39:37.511Z,99597.75
2022-10-08T12:42:17.520Z,99600.84
2022-10-08T12:45:04.570Z,99595.81
2022-10-08T12:47:35.093Z,99594.25
2022-10-08T12:50:42.549Z,99598.03
2022-10-08T12:53:15.820Z,99593.62
2022-10-08T12:55:55.877Z,99592.56
2022-10-08T12:58:29.941Z,99590.88
2022-10-08T13:01:01.128Z,99590.78
2022-10-08T13:03:29.118Z,99591.78
2022-10-08T13:05:57.887Z,99584.91
2022-10-08T13:08:34.142Z,99590.37
2022-10-08T13:11:20.140Z,99585.31
2022-10-08T13:13:49.770Z,99583.19
2022-10-08T13:16:25.298Z,99588.97
2022-10-08T13:18:54.320Z,99587.31
2022-10-08T13:21:28.352Z,99583.00
2022-10-08T13:23:56.595Z,99585.62
2022-10-08T13:26:39.551Z,99588.91
2022-10-08T13:29:22.894Z,99581.47
2022-10-08T13:31:58.536Z,99583.78
2022-10-08T13:34:44.239Z,99592.44
2022-10-08T13:37:32.898Z,99578.84
2022-10-08T13:40:13.241Z,99571.03
2022-10-08T13:42:45.969Z,99578.97
2022-10-08T13:45:17.832Z,99570.28
2022-10-08T13:47:46.214Z,99575.84
2022-10-08T13:50:15.248Z,99571.97
2022-10-08T13:52:51.480Z,99569.44
2022-10-08T13:55:41.597Z,99571.94
2022-10-08T13:58:13.997Z,99558.72
2022-10-08T14:00:43.415Z,99563.41
2022-10-08T14:03:12.090Z,99560.72
2022-10-08T14:05:45.667Z,99554.06
2022-10-08T14:08:19.886Z,99547.62
2022-10-08T14:10:48.028Z,99559.28
2022-10-08T14:13:16.667Z,99544.37
2022-10-08T14:15:44.497Z,99543.97
2022-10-08T14:18:12.247Z,99549.66
2022-10-08T14:20:40.573Z,99545.78
2022-10-08T14:23:10.938Z,99539.19
2022-10-08T14:25:38.697Z,99539.47
2022-10-08T14:28:07.037Z,99535.87
2022-10-08T14:30:35.116Z,99538.31
2022-10-08T14:33:04.749Z,99539.22
2022-10-08T14:35:35.797Z,99547.66
2022-10-08T14:38:03.667Z,99541.88
2022-10-08T14:40:31.979Z,99550.16
2022-10-08T14:43:00.075Z,99540.25
2022-10-08T14:45:27.907Z,99548.50
2022-10-08T14:47:56.019Z,99541.75
2022-10-08T14:50:24.168Z,99535.03
2022-10-08T14:52:52.215Z,99541.69
2022-10-08T14:55:20.569Z,99530.22
2022-10-08T14:57:48.908Z,99536.34
2022-10-08T15:00:17.214Z,99531.66
2022-10-08T15:02:45.380Z,99532.72
2022-10-08T15:05:13.720Z,99529.75
2022-10-08T15:07:41.479Z,99536.13
2022-10-08T15:10:09.849Z,99525.28
2022-10-08T15:12:38.078Z,99533.31
2022-10-08T15:15:07.023Z,99533.56
2022-10-08T15:17:34.838Z,99530.84
2022-10-08T15:20:03.651Z,99525.59
2022-10-08T15:22:31.481Z,99517.84
2022-10-08T15:24:59.281Z,99528.56
2022-10-08T15:27:27.337Z,99533.59
2022-10-08T15:29:55.117Z,99526.28
2022-10-08T15:32:29.600Z,99525.50
2022-10-08T15:34:58.661Z,99523.47
2022-10-08T15:37:26.507Z,99521.06
2022-10-08T15:39:54.507Z,99533.91
2022-10-08T15:42:22.909Z,99535.28
2022-10-08T15:44:50.948Z,99536.41
2022-10-08T15:47:18.718Z,99535.00
2022-10-08T15:49:47.255Z,99532.91
2022-10-08T15:52:21.747Z,99539.34
2022-10-08T15:54:49.801Z,99544.25
2022-10-08T15:57:18.468Z,99541.53
2022-10-08T15:59:46.364Z,99544.84
2022-10-08T16:02:17.514Z,99532.59
2022-10-08T16:04:47.622Z,99531.72
2022-10-08T16:07:16.796Z,99533.97
2022-10-08T16:09:44.708Z,99536.19
2022-10-08T16:12:12.820Z,99535.16
2022-10-08T16:14:40.699Z,99540.41
2022-10-08T16:17:08.611Z,99539.53
2022-10-08T16:19:36.900Z,99541.53
2022-10-08T16:22:05.608Z,99537.56
2022-10-08T16:24:33.378Z,99545.97
2022-10-08T16:27:01.560Z,99562.06
2022-10-08T16:29:29.557Z,99563.97
2022-10-08T16:31:57.760Z,99564.75
2022-10-08T16:34:28.645Z,99569.06
2022-10-08T16:36:59.527Z,99560.78
2022-10-08T16:39:28.058Z,99565.06
2022-10-08T16:41:56.173Z,99566.37
2022-10-08T16:44:24.058Z,99568.94
2022-10-08T16:46:53.049Z,99563.53
2022-10-08T16:49:25.530Z,99562.81
2022-10-08T16:51:59.479Z,99573.41
2022-10-08T16:54:28.461Z,99572.91
2022-10-08T16:56:56.904Z,99566.47
2022-10-08T16:59:26.700Z,99573.81
2022-10-08T17:01:56.243Z,99575.66
2022-10-08T17:04:26.119Z,99578.34
2022-10-08T17:06:54.657Z,99576.88
2022-10-08T17:09:22.489Z,99587.63
2022-10-08T17:11:50.916Z,99582.59
2022-10-08T17:14:18.743Z,99580.31
2022-10-08T17:16:48.969Z,99572.75
2022-10-08T17:19:17.838Z,99578.19
2022-10-08T17:21:45.859Z,99587.06
2022-10-08T17:24:13.819Z,99588.69
2022-10-08T17:26:42.318Z,99591.66
2022-10-08T17:29:11.745Z,99598.31
2022-10-08T17:31:39.942Z,99597.28
2022-10-08T17:34:08.578Z,99596.09
2022-10-08T17:36:39.171Z,99602.44
2022-10-08T17:39:10.352Z,99604.56
2022-10-08T17:41:40.450Z,99606.28
2022-10-08T17:44:09.280Z,99616.31
2022-10-08T17:46:46.279Z,99611.06
2022-10-08T17:49:19.926Z,99612.72
2022-10-08T17:51:48.272Z,99609.91
2022-10-08T17:54:19.336Z,99620.81
2022-10-08T17:56:48.372Z,99619.81
2022-10-08T17:59:22.930Z,99615.84
2022-10-08T18:01:51.008Z,99613.13
2022-10-08T18:04:19.830Z,99616.25
2022-10-08T18:06:48.329Z,99617.94
2022-10-08T18:09:18.746Z,99615.34
2022-10-08T18:11:49.642Z,99610.84
2022-10-08T18:14:18.535Z,99622.47
2022-10-08T18:16:48.346Z,99622.47
2022-10-08T18:19:17.278Z,99629.09
2022-10-08T18:21:48.268Z,99638.09
2022-10-08T18:24:17.306Z,99632.91
2022-10-08T18:26:45.318Z,99633.03
2022-10-08T18:29:14.981Z,99639.19
2022-10-08T18:31:44.108Z,99635.03
2022-10-08T18:34:17.816Z,99643.00
2022-10-08T18:36:47.075Z,99636.63
2022-10-08T18:39:18.928Z,99629.47
2022-10-08T18:41:56.188Z,99626.50
2022-10-08T18:44:28.033Z,99638.09
2022-10-08T18:46:56.222Z,99636.41
2022-10-08T18:49:29.648Z,99637.38
2022-10-08T18:51:58.274Z,99635.19
2022-10-08T18:54:26.239Z,99640.72
2022-10-08T18:56:55.585Z,99633.09
2022-10-08T18:59:24.498Z,99632.22
2022-10-08T19:01:55.651Z,99637.78
2022-10-08T19:04:27.218Z,99634.06
2022-10-08T19:06:55.139Z,99641.25
2022-10-08T19:09:23.047Z,99647.19
2022-10-08T19:11:54.200Z,99652.19
2022-10-08T19:14:23.289Z,99656.59
2022-10-08T19:16:52.046Z,99654.84
2022-10-08T19:19:27.741Z,99663.25
2022-10-08T19:21:56.159Z,99663.44
2022-10-08T19:24:25.587Z,99659.31
2022-10-08T19:26:54.104Z,99662.34
2022-10-08T19:29:25.784Z,99665.50
2022-10-08T19:31:53.769Z,99662.09
2022-10-08T19:34:23.852Z,99659.31
2022-10-08T19:36:52.478Z,99665.25
2022-10-08T19:39:25.949Z,99666.81
2022-10-08T19:41:54.395Z,99659.72
2022-10-08T19:44:22.233Z,99658.53
2022-10-08T19:46:50.414Z,99644.81
2022-10-08T19:49:19.348Z,99647.03
2022-10-08T19:51:47.224Z,99652.25
2022-10-08T19:54:15.779Z,99646.91
2022-10-08T19:56:43.935Z,99657.94
2022-10-08T19:59:12.380Z,99664.66
2022-10-08T20:01:41.537Z,99661.12
2022-10-08T20:04:10.553Z,99665.50
2022-10-08T20:06:40.649Z,99668.34
2022-10-08T20:09:12.241Z,99674.03
2022-10-08T20:11:42.469Z,99673.56
2022-10-08T20:14:10.973Z,99673.00
2022-10-08T20:16:40.725Z,99678.44
2022-10-08T20:19:18.119Z,99678.53
2022-10-08T20:21:46.741Z,99677.78
2022-10-08T20:24:15.284Z,99678.66
2022-10-08T20:26:43.669Z,99675.16
2022-10-08T20:29:14.518Z,99675.91
2022-10-08T20:31:46.376Z,99664.13
2022-10-08T20:34:17.882Z,99667.94
2022-10-08T20:36:46.941Z,99674.91
2022-10-08T20:39:16.163Z,99675.22
2022-10-08T20:41:44.368Z,99686.44
2022-10-08T20:44:13.048Z,99685.53
2022-10-08T20:46:40.921Z,99681.22
2022-10-08T20:49:11.578Z,99686.16
2022-10-08T20:51:41.612Z,99688.34
2022-10-08T20:54:11.267Z,99696.09
2022-10-08T20:56:40.534Z,99686.44
2022-10-08T20:59:10.420Z,99676.75
2022-10-08T21:01:38.895Z,99685.94
2022-10-08T21:04:07.993Z,99694.09
2022-10-08T21:06:44.877Z,99688.94
2022-10-08T21:09:14.481Z,99683.97
2022-10-08T21:11:42.990Z,99681.34
2022-10-08T21:14:11.028Z,99681.28
2022-10-08T21:16:40.181Z,99680.34
2022-10-08T21:19:11.878Z,99675.25
2022-10-08T21:21:40.509Z,99680.75
2022-10-08T21:24:09.457Z,99678.03
2022-10-08T21:26:39.410Z,99674.13
2022-10-08T21:29:09.851Z,99678.22
2022-10-08T21:31:39.099Z,99677.41
2022-10-08T21:34:07.940Z,99680.22
2022-10-08T21:36:38.152Z,99677.34
2022-10-08T21:39:07.888Z,99686.44
2022-10-08T21:41:37.357Z,99676.62
2022-10-08T21:44:06.708Z,99675.56
2022-10-08T21:46:37.509Z,99683.50
2022-10-08T21:49:12.787Z,99675.00
2022-10-08T21:51:40.750Z,99675.97
2022-10-08T21:54:11.308Z,99679.75
2022-10-08T21:56:41.111Z,99682.88
2022-10-08T21:59:12.469Z,99681.81
2022-10-08T22:01:41.650Z,99684.97
2022-10-08T22:04:11.389Z,99687.34
2022-10-08T22:06:42.530Z,99685.69
2022-10-08T22:09:14.435Z,99689.37
2022-10-08T22:11:42.468Z,99682.38
2022-10-08T22:14:10.949Z,99680.56
2022-10-08T22:16:38.914Z,99689.84
2022-10-08T22:19:06.951Z,99686.72
2022-10-08T22:21:35.291Z,99693.66
2022-10-08T22:24:03.771Z,99689.84
2022-10-08T22:26:36.380Z,99690.34
2022-10-08T22:29:05.998Z,99696.41
2022-10-08T22:31:34.661Z,99701.66
2022-10-08T22:34:02.699Z,99706.03
2022-10-08T22:36:32.285Z,99701.78
2022-10-08T22:39:00.352Z,99696.84
2022-10-08T22:41:30.539Z,99705.78
2022-10-08T22:43:59.339Z,99701.78
2022-10-08T22:46:29.730Z,99703.72
2022-10-08T22:48:58.856Z,99708.91
2022-10-08T22:51:27.248Z,99709.81
2022-10-08T22:53:55.287Z,99708.22
2022-10-08T22:56:27.239Z,99708.34
2022-10-08T22:58:55.994Z,99708.53
2022-10-08T23:01:24.964Z,99712.91
2022-10-08T23:03:53.838Z,99708.03
2022-10-08T23:06:30.259Z,99706.13
2022-10-08T23:09:16.219Z,99713.84
2022-10-08T23:11:44.302Z,99720.34
2022-10-08T23:14:12.089Z,99722.78
2022-10-08T23:16:40.026Z,99728.84
2022-10-08T23:19:09.359Z,99725.28
2022-10-08T23:21:37.966Z,99722.72
2022-10-08T23:24:06.137Z,99719.78
2022-10-08T23:26:36.074Z,99721.38
2022-10-08T23:29:04.251Z,99728.09
2022-10-08T23:31:34.774Z,99723.59
2022-10-08T23:34:03.608Z,99717.56
2022-10-08T23:36:39.470Z,99724.03
2022-10-08T23:39:08.858Z,99721.16
2022-10-08T23:41:37.259Z,99724.03
2022-10-08T23:44:05.497Z,99724.28
2022-10-08T23:46:33.769Z,99724.31
2022-10-08T23:49:01.579Z,99726.97
2022-10-08T23:51:31.780Z,99733.13
2022-10-08T23:54:01.588Z,99731.38
2022-10-08T23:56:29.750Z,99742.66
2022-10-08T23:58:58.360Z,99734.72
